sensor_id;sensor_type;location;lat;lon;timestamp;P1;durP1;ratioP1;P2;durP2;ratioP2
54261;SDS011;40174;52.364;6.452;2022-11-13T00:00:09;19.88;;;10.38;;
54261;SDS011;40174;52.364;6.452;2022-11-13T00:02:55;20.77;;;9.15;;
54261;SDS011;40174;52.364;6.452;2022-11-13T00:05:42;24.23;;;10.00;;
54261;SDS011;40174;52.364;6.452;2022-11-13T00:08:27;20.08;;;8.95;;
54261;SDS011;40174;52.364;6.452;2022-11-13T00:11:13;18.20;;;8.10;;
54261;SDS011;40174;52.364;6.452;2022-11-13T00:14:01;15.98;;;8.15;;
54261;SDS011;40174;52.364;6.452;2022-11-13T00:16:46;17.88;;;8.32;;
54261;SDS011;40174;52.364;6.452;2022-11-13T00:19:31;16.38;;;8.13;;
54261;SDS011;40174;52.364;6.452;2022-11-13T00:22:18;19.10;;;8.43;;
54261;SDS011;40174;52.364;6.452;2022-11-13T00:25:03;17.50;;;8.38;;
54261;SDS011;40174;52.364;6.452;2022-11-13T00:27:49;19.98;;;8.45;;
54261;SDS011;40174;52.364;6.452;2022-11-13T00:30:34;19.15;;;7.82;;
54261;SDS011;40174;52.364;6.452;2022-11-13T00:33:19;19.25;;;8.68;;
54261;SDS011;40174;52.364;6.452;2022-11-13T00:36:06;22.13;;;9.55;;
54261;SDS011;40174;52.364;6.452;2022-11-13T00:38:54;17.23;;;8.32;;
54261;SDS011;40174;52.364;6.452;2022-11-13T00:41:39;19.25;;;9.48;;
54261;SDS011;40174;52.364;6.452;2022-11-13T00:44:24;17.73;;;9.48;;
54261;SDS011;40174;52.364;6.452;2022-11-13T00:47:09;19.05;;;9.02;;
54261;SDS011;40174;52.364;6.452;2022-11-13T00:49:55;20.95;;;9.43;;
54261;SDS011;40174;52.364;6.452;2022-11-13T00:52:40;19.05;;;9.43;;
54261;SDS011;40174;52.364;6.452;2022-11-13T00:55:27;20.00;;;9.65;;
54261;SDS011;40174;52.364;6.452;2022-11-13T00:58:12;22.08;;;10.65;;
54261;SDS011;40174;52.364;6.452;2022-11-13T01:03:47;21.77;;;9.93;;
54261;SDS011;40174;52.364;6.452;2022-11-13T01:06:32;21.93;;;9.93;;
54261;SDS011;40174;52.364;6.452;2022-11-13T01:09:18;22.45;;;10.93;;
54261;SDS011;40174;52.364;6.452;2022-11-13T01:12:05;18.27;;;9.98;;
54261;SDS011;40174;52.364;6.452;2022-11-13T01:14:50;20.02;;;10.27;;
54261;SDS011;40174;52.364;6.452;2022-11-13T01:17:35;20.38;;;9.63;;
54261;SDS011;40174;52.364;6.452;2022-11-13T01:20:20;19.10;;;9.50;;
54261;SDS011;40174;52.364;6.452;2022-11-13T01:25:51;17.25;;;8.82;;
54261;SDS011;40174;52.364;6.452;2022-11-13T01:28:38;19.80;;;9.43;;
54261;SDS011;40174;52.364;6.452;2022-11-13T01:31:24;19.88;;;9.13;;
54261;SDS011;40174;52.364;6.452;2022-11-13T01:34:10;17.85;;;8.25;;
54261;SDS011;40174;52.364;6.452;2022-11-13T01:36:57;22.08;;;9.15;;
54261;SDS011;40174;52.364;6.452;2022-11-13T01:39:42;22.23;;;9.38;;
54261;SDS011;40174;52.364;6.452;2022-11-13T01:42:28;18.88;;;8.45;;
54261;SDS011;40174;52.364;6.452;2022-11-13T01:48:51;17.73;;;7.97;;
54261;SDS011;40174;52.364;6.452;2022-11-13T01:51:46;22.10;;;9.23;;
54261;SDS011;40174;52.364;6.452;2022-11-13T01:54:36;19.20;;;8.48;;
54261;SDS011;40174;52.364;6.452;2022-11-13T01:57:26;17.20;;;8.43;;
54261;SDS011;40174;52.364;6.452;2022-11-13T02:00:12;17.73;;;8.02;;
54261;SDS011;40174;52.364;6.452;2022-11-13T02:05:47;17.75;;;7.30;;
54261;SDS011;40174;52.364;6.452;2022-11-13T02:08:36;17.58;;;7.50;;
54261;SDS011;40174;52.364;6.452;2022-11-13T02:11:22;16.13;;;8.02;;
54261;SDS011;40174;52.364;6.452;2022-11-13T02:14:07;16.23;;;7.50;;
54261;SDS011;40174;52.364;6.452;2022-11-13T02:16:54;15.05;;;8.32;;
54261;SDS011;40174;52.364;6.452;2022-11-13T02:19:46;17.80;;;8.18;;
54261;SDS011;40174;52.364;6.452;2022-11-13T02:22:36;16.27;;;9.00;;
54261;SDS011;40174;52.364;6.452;2022-11-13T02:25:28;16.08;;;7.82;;
54261;SDS011;40174;52.364;6.452;2022-11-13T02:28:15;19.92;;;8.05;;
54261;SDS011;40174;52.364;6.452;2022-11-13T02:31:05;15.80;;;8.45;;
54261;SDS011;40174;52.364;6.452;2022-11-13T02:33:51;19.33;;;8.48;;
54261;SDS011;40174;52.364;6.452;2022-11-13T02:43:55;17.73;;;8.60;;
54261;SDS011;40174;52.364;6.452;2022-11-13T02:46:40;17.02;;;8.52;;
54261;SDS011;40174;52.364;6.452;2022-11-13T02:49:25;20.85;;;9.45;;
54261;SDS011;40174;52.364;6.452;2022-11-13T02:52:10;18.67;;;8.55;;
54261;SDS011;40174;52.364;6.452;2022-11-13T02:54:55;18.20;;;8.95;;
54261;SDS011;40174;52.364;6.452;2022-11-13T02:57:41;17.65;;;8.70;;
54261;SDS011;40174;52.364;6.452;2022-11-13T03:00:27;14.25;;;7.75;;
54261;SDS011;40174;52.364;6.452;2022-11-13T03:03:12;15.88;;;8.75;;
54261;SDS011;40174;52.364;6.452;2022-11-13T03:05:58;16.00;;;8.40;;
54261;SDS011;40174;52.364;6.452;2022-11-13T03:08:43;18.95;;;8.63;;
54261;SDS011;40174;52.364;6.452;2022-11-13T03:11:28;19.70;;;9.02;;
54261;SDS011;40174;52.364;6.452;2022-11-13T03:14:14;15.75;;;7.60;;
54261;SDS011;40174;52.364;6.452;2022-11-13T03:17:00;20.33;;;8.30;;
54261;SDS011;40174;52.364;6.452;2022-11-13T03:19:48;17.75;;;8.05;;
54261;SDS011;40174;52.364;6.452;2022-11-13T03:22:34;18.40;;;9.13;;
54261;SDS011;40174;52.364;6.452;2022-11-13T03:25:19;16.13;;;8.38;;
54261;SDS011;40174;52.364;6.452;2022-11-13T03:28:04;15.65;;;8.00;;
54261;SDS011;40174;52.364;6.452;2022-11-13T03:30:49;18.25;;;8.18;;
54261;SDS011;40174;52.364;6.452;2022-11-13T03:33:36;17.10;;;7.60;;
54261;SDS011;40174;52.364;6.452;2022-11-13T03:36:22;19.33;;;8.50;;
54261;SDS011;40174;52.364;6.452;2022-11-13T03:39:07;16.77;;;8.00;;
54261;SDS011;40174;52.364;6.452;2022-11-13T03:41:52;18.20;;;8.75;;
54261;SDS011;40174;52.364;6.452;2022-11-13T03:44:37;18.50;;;9.00;;
54261;SDS011;40174;52.364;6.452;2022-11-13T03:47:22;17.55;;;7.95;;
54261;SDS011;40174;52.364;6.452;2022-11-13T03:50:09;16.55;;;7.78;;
54261;SDS011;40174;52.364;6.452;2022-11-13T03:52:54;19.15;;;8.32;;
54261;SDS011;40174;52.364;6.452;2022-11-13T03:55:39;20.92;;;9.18;;
54261;SDS011;40174;52.364;6.452;2022-11-13T03:58:25;14.80;;;8.05;;
54261;SDS011;40174;52.364;6.452;2022-11-13T04:01:10;15.70;;;7.57;;
54261;SDS011;40174;52.364;6.452;2022-11-13T04:03:55;17.10;;;8.05;;
54261;SDS011;40174;52.364;6.452;2022-11-13T04:06:42;16.80;;;7.90;;
54261;SDS011;40174;52.364;6.452;2022-11-13T04:09:27;20.02;;;9.05;;
54261;SDS011;40174;52.364;6.452;2022-11-13T04:12:12;16.07;;;8.00;;
54261;SDS011;40174;52.364;6.452;2022-11-13T04:14:57;13.17;;;6.87;;
54261;SDS011;40174;52.364;6.452;2022-11-13T04:17:43;13.32;;;7.20;;
54261;SDS011;40174;52.364;6.452;2022-11-13T04:20:28;20.70;;;8.07;;
54261;SDS011;40174;52.364;6.452;2022-11-13T04:23:15;16.80;;;7.45;;
54261;SDS011;40174;52.364;6.452;2022-11-13T04:26:00;15.80;;;7.40;;
54261;SDS011;40174;52.364;6.452;2022-11-13T04:28:45;15.77;;;8.13;;
54261;SDS011;40174;52.364;6.452;2022-11-13T04:31:31;16.58;;;7.82;;
54261;SDS011;40174;52.364;6.452;2022-11-13T04:34:16;18.20;;;8.15;;
54261;SDS011;40174;52.364;6.452;2022-11-13T04:37:01;14.65;;;7.53;;
54261;SDS011;40174;52.364;6.452;2022-11-13T04:39:48;22.23;;;8.35;;
54261;SDS011;40174;52.364;6.452;2022-11-13T04:42:33;17.23;;;7.22;;
54261;SDS011;40174;52.364;6.452;2022-11-13T04:45:33;15.63;;;6.97;;
54261;SDS011;40174;52.364;6.452;2022-11-13T04:48:18;14.40;;;7.10;;
54261;SDS011;40174;52.364;6.452;2022-11-13T04:51:04;13.68;;;5.97;;
54261;SDS011;40174;52.364;6.452;2022-11-13T04:53:49;17.10;;;7.18;;
54261;SDS011;40174;52.364;6.452;2022-11-13T04:56:35;19.98;;;6.93;;
54261;SDS011;40174;52.364;6.452;2022-11-13T04:59:21;13.93;;;6.95;;
54261;SDS011;40174;52.364;6.452;2022-11-13T05:02:07;13.27;;;6.30;;
54261;SDS011;40174;52.364;6.452;2022-11-13T05:04:52;14.18;;;6.70;;
54261;SDS011;40174;52.364;6.452;2022-11-13T05:07:37;13.73;;;6.40;;
54261;SDS011;40174;52.364;6.452;2022-11-13T05:10:23;15.35;;;6.90;;
54261;SDS011;40174;52.364;6.452;2022-11-13T05:13:09;16.57;;;7.33;;
54261;SDS011;40174;52.364;6.452;2022-11-13T05:15:58;14.65;;;7.22;;
54261;SDS011;40174;52.364;6.452;2022-11-13T05:18:44;12.93;;;6.20;;
54261;SDS011;40174;52.364;6.452;2022-11-13T05:21:29;14.60;;;6.30;;
54261;SDS011;40174;52.364;6.452;2022-11-13T05:24:14;17.45;;;6.95;;
54261;SDS011;40174;52.364;6.452;2022-11-13T05:27:00;13.43;;;6.30;;
54261;SDS011;40174;52.364;6.452;2022-11-13T05:29:46;12.60;;;6.57;;
54261;SDS011;40174;52.364;6.452;2022-11-13T05:32:31;13.93;;;6.72;;
54261;SDS011;40174;52.364;6.452;2022-11-13T05:35:17;12.77;;;6.33;;
54261;SDS011;40174;52.364;6.452;2022-11-13T05:38:02;15.13;;;6.57;;
54261;SDS011;40174;52.364;6.452;2022-11-13T05:40:47;13.55;;;6.47;;
54261;SDS011;40174;52.364;6.452;2022-11-13T05:43:33;14.25;;;6.20;;
54261;SDS011;40174;52.364;6.452;2022-11-13T05:46:21;15.43;;;7.18;;
54261;SDS011;40174;52.364;6.452;2022-11-13T05:49:08;12.98;;;6.13;;
54261;SDS011;40174;52.364;6.452;2022-11-13T05:51:53;14.35;;;6.32;;
54261;SDS011;40174;52.364;6.452;2022-11-13T05:54:39;15.63;;;6.82;;
54261;SDS011;40174;52.364;6.452;2022-11-13T05:57:24;11.15;;;6.15;;
54261;SDS011;40174;52.364;6.452;2022-11-13T06:00:10;13.15;;;6.45;;
54261;SDS011;40174;52.364;6.452;2022-11-13T06:02:58;10.98;;;6.25;;
54261;SDS011;40174;52.364;6.452;2022-11-13T06:05:43;13.35;;;6.30;;
54261;SDS011;40174;52.364;6.452;2022-11-13T06:08:28;12.00;;;5.88;;
54261;SDS011;40174;52.364;6.452;2022-11-13T06:11:14;12.27;;;6.35;;
54261;SDS011;40174;52.364;6.452;2022-11-13T06:14:01;11.50;;;6.32;;
54261;SDS011;40174;52.364;6.452;2022-11-13T06:16:46;11.10;;;5.18;;
54261;SDS011;40174;52.364;6.452;2022-11-13T06:19:32;13.00;;;5.83;;
54261;SDS011;40174;52.364;6.452;2022-11-13T06:22:18;12.23;;;5.65;;
54261;SDS011;40174;52.364;6.452;2022-11-13T06:25:03;11.43;;;6.20;;
54261;SDS011;40174;52.364;6.452;2022-11-13T06:27:49;12.95;;;5.82;;
54261;SDS011;40174;52.364;6.452;2022-11-13T06:30:34;12.60;;;5.70;;
54261;SDS011;40174;52.364;6.452;2022-11-13T06:33:19;13.20;;;5.93;;
54261;SDS011;40174;52.364;6.452;2022-11-13T06:36:07;11.20;;;5.70;;
54261;SDS011;40174;52.364;6.452;2022-11-13T06:38:55;11.52;;;5.15;;
54261;SDS011;40174;52.364;6.452;2022-11-13T06:41:40;13.00;;;5.35;;
54261;SDS011;40174;52.364;6.452;2022-11-13T06:44:25;11.88;;;5.75;;
54261;SDS011;40174;52.364;6.452;2022-11-13T06:47:10;12.17;;;5.33;;
54261;SDS011;40174;52.364;6.452;2022-11-13T06:49:56;11.63;;;5.40;;
54261;SDS011;40174;52.364;6.452;2022-11-13T06:52:42;10.05;;;5.15;;
54261;SDS011;40174;52.364;6.452;2022-11-13T06:55:27;11.05;;;5.38;;
54261;SDS011;40174;52.364;6.452;2022-11-13T06:58:13;17.45;;;5.78;;
54261;SDS011;40174;52.364;6.452;2022-11-13T07:01:03;10.57;;;4.88;;
54261;SDS011;40174;52.364;6.452;2022-11-13T07:03:49;12.18;;;5.68;;
54261;SDS011;40174;52.364;6.452;2022-11-13T07:06:35;11.50;;;4.97;;
54261;SDS011;40174;52.364;6.452;2022-11-13T07:09:21;13.52;;;5.80;;
54261;SDS011;40174;52.364;6.452;2022-11-13T07:12:07;10.63;;;4.90;;
54261;SDS011;40174;52.364;6.452;2022-11-13T07:14:52;12.13;;;5.65;;
54261;SDS011;40174;52.364;6.452;2022-11-13T07:17:37;10.40;;;5.40;;
54261;SDS011;40174;52.364;6.452;2022-11-13T07:20:22;12.52;;;5.70;;
54261;SDS011;40174;52.364;6.452;2022-11-13T07:23:08;11.25;;;4.20;;
54261;SDS011;40174;52.364;6.452;2022-11-13T07:25:55;11.38;;;4.65;;
54261;SDS011;40174;52.364;6.452;2022-11-13T07:28:40;12.18;;;5.57;;
54261;SDS011;40174;52.364;6.452;2022-11-13T07:31:25;10.90;;;4.75;;
54261;SDS011;40174;52.364;6.452;2022-11-13T07:34:11;11.43;;;4.93;;
54261;SDS011;40174;52.364;6.452;2022-11-13T07:39:41;11.10;;;4.78;;
54261;SDS011;40174;52.364;6.452;2022-11-13T07:42:28;10.68;;;5.20;;
54261;SDS011;40174;52.364;6.452;2022-11-13T07:45:13;11.43;;;5.82;;
54261;SDS011;40174;52.364;6.452;2022-11-13T07:47:59;10.07;;;5.07;;
54261;SDS011;40174;52.364;6.452;2022-11-13T07:50:45;10.48;;;5.05;;
54261;SDS011;40174;52.364;6.452;2022-11-13T07:53:31;10.70;;;5.30;;
54261;SDS011;40174;52.364;6.452;2022-11-13T07:56:16;11.55;;;5.60;;
54261;SDS011;40174;52.364;6.452;2022-11-13T07:59:02;12.38;;;5.40;;
54261;SDS011;40174;52.364;6.452;2022-11-13T08:01:48;11.27;;;5.53;;
54261;SDS011;40174;52.364;6.452;2022-11-13T08:07:18;12.73;;;6.05;;
54261;SDS011;40174;52.364;6.452;2022-11-13T08:10:04;11.45;;;5.45;;
54261;SDS011;40174;52.364;6.452;2022-11-13T08:12:56;13.73;;;6.05;;
54261;SDS011;40174;52.364;6.452;2022-11-13T08:15:43;13.02;;;5.43;;
54261;SDS011;40174;52.364;6.452;2022-11-13T08:18:29;12.50;;;6.00;;
54261;SDS011;40174;52.364;6.452;2022-11-13T08:21:15;13.63;;;6.22;;
54261;SDS011;40174;52.364;6.452;2022-11-13T08:24:00;15.20;;;6.00;;
54261;SDS011;40174;52.364;6.452;2022-11-13T08:26:45;16.42;;;6.20;;
54261;SDS011;40174;52.364;6.452;2022-11-13T08:29:31;12.80;;;6.07;;
54261;SDS011;40174;52.364;6.452;2022-11-13T08:32:18;15.05;;;6.25;;
54261;SDS011;40174;52.364;6.452;2022-11-13T08:35:05;11.82;;;6.03;;
54261;SDS011;40174;52.364;6.452;2022-11-13T08:37:50;12.98;;;5.93;;
54261;SDS011;40174;52.364;6.452;2022-11-13T08:40:36;17.73;;;6.32;;
54261;SDS011;40174;52.364;6.452;2022-11-13T08:43:21;14.93;;;7.53;;
54261;SDS011;40174;52.364;6.452;2022-11-13T08:46:06;17.92;;;7.25;;
54261;SDS011;40174;52.364;6.452;2022-11-13T08:48:53;16.35;;;8.93;;
54261;SDS011;40174;52.364;6.452;2022-11-13T08:51:39;18.90;;;9.27;;
54261;SDS011;40174;52.364;6.452;2022-11-13T08:54:24;24.10;;;9.82;;
54261;SDS011;40174;52.364;6.452;2022-11-13T08:57:09;18.13;;;9.85;;
54261;SDS011;40174;52.364;6.452;2022-11-13T08:59:55;23.70;;;10.52;;
54261;SDS011;40174;52.364;6.452;2022-11-13T09:02:40;19.67;;;10.40;;
54261;SDS011;40174;52.364;6.452;2022-11-13T09:05:26;19.90;;;9.77;;
54261;SDS011;40174;52.364;6.452;2022-11-13T09:08:12;22.27;;;10.73;;
54261;SDS011;40174;52.364;6.452;2022-11-13T09:11:00;15.68;;;9.73;;
54261;SDS011;40174;52.364;6.452;2022-11-13T09:13:47;18.50;;;9.85;;
54261;SDS011;40174;52.364;6.452;2022-11-13T09:16:33;21.95;;;10.38;;
54261;SDS011;40174;52.364;6.452;2022-11-13T09:19:18;23.35;;;10.65;;
54261;SDS011;40174;52.364;6.452;2022-11-13T09:22:04;23.00;;;10.50;;
54261;SDS011;40174;52.364;6.452;2022-11-13T09:24:50;23.48;;;11.10;;
54261;SDS011;40174;52.364;6.452;2022-11-13T09:27:35;20.67;;;10.75;;
54261;SDS011;40174;52.364;6.452;2022-11-13T09:30:20;21.35;;;10.13;;
54261;SDS011;40174;52.364;6.452;2022-11-13T09:35:51;18.25;;;8.55;;
54261;SDS011;40174;52.364;6.452;2022-11-13T09:38:38;18.17;;;8.25;;
54261;SDS011;40174;52.364;6.452;2022-11-13T09:41:24;17.50;;;7.55;;
54261;SDS011;40174;52.364;6.452;2022-11-13T09:44:14;13.27;;;6.90;;
54261;SDS011;40174;52.364;6.452;2022-11-13T09:47:04;20.05;;;8.13;;
54261;SDS011;40174;52.364;6.452;2022-11-13T09:49:56;16.60;;;6.88;;
54261;SDS011;40174;52.364;6.452;2022-11-13T09:52:46;13.32;;;6.72;;
54261;SDS011;40174;52.364;6.452;2022-11-13T09:55:35;14.30;;;7.55;;
54261;SDS011;40174;52.364;6.452;2022-11-13T09:58:27;15.18;;;7.65;;
54261;SDS011;40174;52.364;6.452;2022-11-13T10:01:25;15.25;;;6.60;;
54261;SDS011;40174;52.364;6.452;2022-11-13T10:04:14;12.32;;;6.35;;
54261;SDS011;40174;52.364;6.452;2022-11-13T10:07:11;13.43;;;7.00;;
54261;SDS011;40174;52.364;6.452;2022-11-13T10:10:15;12.60;;;6.35;;
54261;SDS011;40174;52.364;6.452;2022-11-13T10:13:12;13.13;;;6.28;;
54261;SDS011;40174;52.364;6.452;2022-11-13T10:16:01;12.65;;;6.00;;
54261;SDS011;40174;52.364;6.452;2022-11-13T10:18:50;10.88;;;5.55;;
54261;SDS011;40174;52.364;6.452;2022-11-13T10:21:41;12.68;;;5.95;;
54261;SDS011;40174;52.364;6.452;2022-11-13T10:24:32;10.57;;;6.00;;
54261;SDS011;40174;52.364;6.452;2022-11-13T10:27:23;14.60;;;5.70;;
54261;SDS011;40174;52.364;6.452;2022-11-13T10:30:14;12.60;;;5.45;;
54261;SDS011;40174;52.364;6.452;2022-11-13T10:33:02;10.23;;;4.80;;
54261;SDS011;40174;52.364;6.452;2022-11-13T10:35:52;11.80;;;5.13;;
54261;SDS011;40174;52.364;6.452;2022-11-13T10:38:46;9.73;;;4.47;;
54261;SDS011;40174;52.364;6.452;2022-11-13T10:41:43;13.38;;;5.47;;
54261;SDS011;40174;52.364;6.452;2022-11-13T10:44:33;10.35;;;5.30;;
54261;SDS011;40174;52.364;6.452;2022-11-13T10:47:21;10.52;;;5.80;;
54261;SDS011;40174;52.364;6.452;2022-11-13T10:50:10;11.32;;;4.57;;
54261;SDS011;40174;52.364;6.452;2022-11-13T10:53:12;11.88;;;5.40;;
54261;SDS011;40174;52.364;6.452;2022-11-13T10:55:59;12.57;;;5.97;;
54261;SDS011;40174;52.364;6.452;2022-11-13T10:58:44;11.27;;;5.15;;
54261;SDS011;40174;52.364;6.452;2022-11-13T11:01:30;10.20;;;5.35;;
54261;SDS011;40174;52.364;6.452;2022-11-13T11:04:20;10.77;;;4.70;;
54261;SDS011;40174;52.364;6.452;2022-11-13T11:07:11;8.77;;;4.32;;
54261;SDS011;40174;52.364;6.452;2022-11-13T11:09:58;13.93;;;5.20;;
54261;SDS011;40174;52.364;6.452;2022-11-13T11:12:49;11.25;;;4.28;;
54261;SDS011;40174;52.364;6.452;2022-11-13T11:15:38;8.25;;;4.03;;
54261;SDS011;40174;52.364;6.452;2022-11-13T11:18:27;9.48;;;4.70;;
54261;SDS011;40174;52.364;6.452;2022-11-13T11:21:18;7.60;;;3.15;;
54261;SDS011;40174;52.364;6.452;2022-11-13T11:24:06;6.78;;;3.00;;
54261;SDS011;40174;52.364;6.452;2022-11-13T11:26:58;6.97;;;3.38;;
54261;SDS011;40174;52.364;6.452;2022-11-13T11:29:47;7.82;;;3.25;;
54261;SDS011;40174;52.364;6.452;2022-11-13T11:32:39;8.02;;;3.47;;
54261;SDS011;40174;52.364;6.452;2022-11-13T11:35:40;7.25;;;3.13;;
54261;SDS011;40174;52.364;6.452;2022-11-13T11:38:32;7.18;;;3.13;;
54261;SDS011;40174;52.364;6.452;2022-11-13T11:41:27;6.47;;;2.88;;
54261;SDS011;40174;52.364;6.452;2022-11-13T11:44:20;8.57;;;3.67;;
54261;SDS011;40174;52.364;6.452;2022-11-13T11:47:11;10.15;;;4.03;;
54261;SDS011;40174;52.364;6.452;2022-11-13T11:49:58;8.52;;;3.60;;
54261;SDS011;40174;52.364;6.452;2022-11-13T11:52:50;7.60;;;3.72;;
54261;SDS011;40174;52.364;6.452;2022-11-13T11:56:00;10.48;;;4.20;;
54261;SDS011;40174;52.364;6.452;2022-11-13T11:59:01;7.97;;;3.50;;
54261;SDS011;40174;52.364;6.452;2022-11-13T12:01:57;7.10;;;3.47;;
54261;SDS011;40174;52.364;6.452;2022-11-13T12:05:01;8.60;;;3.63;;
54261;SDS011;40174;52.364;6.452;2022-11-13T12:07:58;9.77;;;4.28;;
54261;SDS011;40174;52.364;6.452;2022-11-13T12:10:55;7.30;;;3.63;;
54261;SDS011;40174;52.364;6.452;2022-11-13T12:13:46;8.50;;;3.40;;
54261;SDS011;40174;52.364;6.452;2022-11-13T12:16:42;9.55;;;4.05;;
54261;SDS011;40174;52.364;6.452;2022-11-13T12:19:37;7.47;;;3.97;;
54261;SDS011;40174;52.364;6.452;2022-11-13T12:22:31;7.72;;;3.40;;
54261;SDS011;40174;52.364;6.452;2022-11-13T12:25:31;8.07;;;3.35;;
54261;SDS011;40174;52.364;6.452;2022-11-13T12:28:23;9.98;;;3.38;;
54261;SDS011;40174;52.364;6.452;2022-11-13T12:31:24;7.03;;;3.38;;
54261;SDS011;40174;52.364;6.452;2022-11-13T12:34:24;7.00;;;3.15;;
54261;SDS011;40174;52.364;6.452;2022-11-13T12:37:14;7.18;;;3.17;;
54261;SDS011;40174;52.364;6.452;2022-11-13T12:40:06;6.85;;;3.50;;
54261;SDS011;40174;52.364;6.452;2022-11-13T12:43:03;5.82;;;3.25;;
54261;SDS011;40174;52.364;6.452;2022-11-13T12:46:02;9.63;;;3.25;;
54261;SDS011;40174;52.364;6.452;2022-11-13T12:48:52;6.50;;;3.28;;
54261;SDS011;40174;52.364;6.452;2022-11-13T12:51:38;10.55;;;3.72;;
54261;SDS011;40174;52.364;6.452;2022-11-13T12:54:25;6.78;;;3.50;;
54261;SDS011;40174;52.364;6.452;2022-11-13T13:00:20;6.75;;;3.35;;
54261;SDS011;40174;52.364;6.452;2022-11-13T13:03:16;8.07;;;3.20;;
54261;SDS011;40174;52.364;6.452;2022-11-13T13:06:18;7.75;;;3.75;;
54261;SDS011;40174;52.364;6.452;2022-11-13T13:09:17;8.10;;;3.58;;
54261;SDS011;40174;52.364;6.452;2022-11-13T13:12:14;6.35;;;3.05;;
54261;SDS011;40174;52.364;6.452;2022-11-13T13:15:26;7.85;;;3.20;;
54261;SDS011;40174;52.364;6.452;2022-11-13T13:18:23;7.50;;;3.47;;
54261;SDS011;40174;52.364;6.452;2022-11-13T13:21:12;7.82;;;3.60;;
54261;SDS011;40174;52.364;6.452;2022-11-13T13:24:06;8.43;;;3.85;;
54261;SDS011;40174;52.364;6.452;2022-11-13T13:26:53;6.53;;;3.50;;
54261;SDS011;40174;52.364;6.452;2022-11-13T13:29:39;5.90;;;3.22;;
54261;SDS011;40174;52.364;6.452;2022-11-13T13:32:27;6.53;;;3.05;;
54261;SDS011;40174;52.364;6.452;2022-11-13T13:35:20;6.68;;;3.03;;
54261;SDS011;40174;52.364;6.452;2022-11-13T13:38:13;6.53;;;2.92;;
54261;SDS011;40174;52.364;6.452;2022-11-13T13:44:27;5.30;;;2.78;;
54261;SDS011;40174;52.364;6.452;2022-11-13T13:47:26;8.07;;;3.47;;
54261;SDS011;40174;52.364;6.452;2022-11-13T13:50:15;6.03;;;3.20;;
54261;SDS011;40174;52.364;6.452;2022-11-13T13:53:04;6.57;;;3.05;;
54261;SDS011;40174;52.364;6.452;2022-11-13T13:55:53;7.40;;;3.47;;
54261;SDS011;40174;52.364;6.452;2022-11-13T13:58:41;7.22;;;3.10;;
54261;SDS011;40174;52.364;6.452;2022-11-13T14:01:28;8.27;;;3.17;;
54261;SDS011;40174;52.364;6.452;2022-11-13T14:04:16;6.45;;;3.17;;
54261;SDS011;40174;52.364;6.452;2022-11-13T14:07:04;6.40;;;3.40;;
54261;SDS011;40174;52.364;6.452;2022-11-13T14:10:03;7.43;;;3.42;;
54261;SDS011;40174;52.364;6.452;2022-11-13T14:12:51;7.82;;;2.88;;
54261;SDS011;40174;52.364;6.452;2022-11-13T14:15:39;6.43;;;3.13;;
54261;SDS011;40174;52.364;6.452;2022-11-13T14:18:24;6.05;;;2.50;;
54261;SDS011;40174;52.364;6.452;2022-11-13T14:21:10;5.75;;;2.88;;
54261;SDS011;40174;52.364;6.452;2022-11-13T14:23:59;6.53;;;2.80;;
54261;SDS011;40174;52.364;6.452;2022-11-13T14:26:46;6.78;;;3.03;;
54261;SDS011;40174;52.364;6.452;2022-11-13T14:29:33;6.47;;;3.28;;
54261;SDS011;40174;52.364;6.452;2022-11-13T14:32:23;8.05;;;3.13;;
54261;SDS011;40174;52.364;6.452;2022-11-13T14:35:15;7.18;;;2.90;;
54261;SDS011;40174;52.364;6.452;2022-11-13T14:38:03;6.10;;;3.00;;
54261;SDS011;40174;52.364;6.452;2022-11-13T14:40:48;5.40;;;2.60;;
54261;SDS011;40174;52.364;6.452;2022-11-13T14:43:33;6.50;;;2.92;;
54261;SDS011;40174;52.364;6.452;2022-11-13T14:46:25;6.05;;;2.88;;
54261;SDS011;40174;52.364;6.452;2022-11-13T14:49:24;7.45;;;3.20;;
54261;SDS011;40174;52.364;6.452;2022-11-13T14:52:18;8.13;;;2.70;;
54261;SDS011;40174;52.364;6.452;2022-11-13T14:55:05;8.30;;;3.33;;
54261;SDS011;40174;52.364;6.452;2022-11-13T14:57:51;5.80;;;2.78;;
54261;SDS011;40174;52.364;6.452;2022-11-13T15:00:37;8.57;;;2.78;;
54261;SDS011;40174;52.364;6.452;2022-11-13T15:03:22;5.78;;;2.85;;
54261;SDS011;40174;52.364;6.452;2022-11-13T15:06:12;6.60;;;3.13;;
54261;SDS011;40174;52.364;6.452;2022-11-13T15:08:58;7.25;;;3.38;;
54261;SDS011;40174;52.364;6.452;2022-11-13T15:11:43;7.00;;;2.90;;
54261;SDS011;40174;52.364;6.452;2022-11-13T15:14:29;8.00;;;3.88;;
54261;SDS011;40174;52.364;6.452;2022-11-13T15:17:15;8.50;;;3.38;;
54261;SDS011;40174;52.364;6.452;2022-11-13T15:20:03;8.98;;;3.70;;
54261;SDS011;40174;52.364;6.452;2022-11-13T15:22:50;7.45;;;2.90;;
54261;SDS011;40174;52.364;6.452;2022-11-13T15:25:36;8.32;;;3.50;;
54261;SDS011;40174;52.364;6.452;2022-11-13T15:28:21;8.10;;;3.40;;
54261;SDS011;40174;52.364;6.452;2022-11-13T15:31:08;8.07;;;3.85;;
54261;SDS011;40174;52.364;6.452;2022-11-13T15:34:02;8.73;;;3.77;;
54261;SDS011;40174;52.364;6.452;2022-11-13T15:36:47;7.85;;;3.50;;
54261;SDS011;40174;52.364;6.452;2022-11-13T15:39:34;8.90;;;3.17;;
54261;SDS011;40174;52.364;6.452;2022-11-13T15:42:21;7.28;;;3.60;;
54261;SDS011;40174;52.364;6.452;2022-11-13T15:45:13;10.05;;;3.20;;
54261;SDS011;40174;52.364;6.452;2022-11-13T15:47:59;7.50;;;3.72;;
54261;SDS011;40174;52.364;6.452;2022-11-13T15:50:45;7.07;;;3.15;;
54261;SDS011;40174;52.364;6.452;2022-11-13T15:53:30;7.05;;;3.25;;
54261;SDS011;40174;52.364;6.452;2022-11-13T15:56:17;9.40;;;4.07;;
54261;SDS011;40174;52.364;6.452;2022-11-13T15:59:02;7.40;;;3.47;;
54261;SDS011;40174;52.364;6.452;2022-11-13T16:01:48;8.98;;;3.85;;
54261;SDS011;40174;52.364;6.452;2022-11-13T16:04:33;9.48;;;3.65;;
54261;SDS011;40174;52.364;6.452;2022-11-13T16:07:22;7.93;;;3.90;;
54261;SDS011;40174;52.364;6.452;2022-11-13T16:10:12;10.38;;;4.75;;
54261;SDS011;40174;52.364;6.452;2022-11-13T16:12:59;10.15;;;4.97;;
54261;SDS011;40174;52.364;6.452;2022-11-13T16:15:44;12.57;;;5.07;;
54261;SDS011;40174;52.364;6.452;2022-11-13T16:18:31;13.23;;;5.32;;
54261;SDS011;40174;52.364;6.452;2022-11-13T16:21:17;11.07;;;5.50;;
54261;SDS011;40174;52.364;6.452;2022-11-13T16:24:03;12.10;;;5.00;;
54261;SDS011;40174;52.364;6.452;2022-11-13T16:26:49;12.20;;;5.50;;
54261;SDS011;40174;52.364;6.452;2022-11-13T16:29:39;9.00;;;4.90;;
54261;SDS011;40174;52.364;6.452;2022-11-13T16:32:25;9.27;;;5.07;;
54261;SDS011;40174;52.364;6.452;2022-11-13T16:35:11;9.77;;;5.13;;
54261;SDS011;40174;52.364;6.452;2022-11-13T16:37:57;10.65;;;5.40;;
54261;SDS011;40174;52.364;6.452;2022-11-13T16:40:42;11.43;;;5.45;;
54261;SDS011;40174;52.364;6.452;2022-11-13T16:46:17;11.65;;;5.25;;
54261;SDS011;40174;52.364;6.452;2022-11-13T16:49:04;12.32;;;5.85;;
54261;SDS011;40174;52.364;6.452;2022-11-13T16:51:49;11.20;;;5.20;;
54261;SDS011;40174;52.364;6.452;2022-11-13T16:54:36;11.52;;;5.40;;
54261;SDS011;40174;52.364;6.452;2022-11-13T16:57:21;9.60;;;5.85;;
54261;SDS011;40174;52.364;6.452;2022-11-13T17:00:07;9.75;;;5.10;;
54261;SDS011;40174;52.364;6.452;2022-11-13T17:02:58;12.18;;;6.10;;
54261;SDS011;40174;52.364;6.452;2022-11-13T17:05:43;12.55;;;5.50;;
54261;SDS011;40174;52.364;6.452;2022-11-13T17:08:28;10.85;;;6.07;;
54261;SDS011;40174;52.364;6.452;2022-11-13T17:11:13;11.80;;;5.82;;
54261;SDS011;40174;52.364;6.452;2022-11-13T17:13:59;10.93;;;5.45;;
54261;SDS011;40174;52.364;6.452;2022-11-13T17:16:45;16.45;;;5.45;;